EGPL

Benbecula Airport

Balivanich, United Kingdom
METAR EGPL 242350Z AUTO 23011KT 9999 FEW019/// 08/07 Q1001
Observed Flight Rules
Apr-24 @ 23:50 UTC (36 minutes ago) Visual Flight Rules
Wind Visibility Clouds
230° at 11 knots 10,000+ meters
  • Few at 1,900' AGL
Temperatures Readings
Current 8°C / 46°F
Dewpoint 7°C / 45°F
Humidity 93%
Altimeter 29.56" Hg
Pressure 1001 hPa
Elevation 6
METAR EGPL 242350Z AUTO 23011KT 9999 FEW019/// 08/07 Q1001
Observed Flight Rules
Apr-24 @ 23:50 UTC
(36 minutes ago)
VFR
Wind Visibility
230° at 11 knots 10,000+ meters
Clouds
  • Few at 1,900' AGL
Temperature Dewpoint
8°C / 46°F 7°C / 45°F
Humidity Altimeter Pressure
93% 29.56" Hg 1001 hPa